createdAt,value
2023-05-03T00:00:28.448Z,99.90
2023-05-03T00:02:32.214Z,99.90
2023-05-03T00:04:34.736Z,99.90
2023-05-03T00:06:36.361Z,99.90
2023-05-03T00:08:38.102Z,99.90
2023-05-03T00:10:39.774Z,99.90
2023-05-03T00:12:41.752Z,99.90
2023-05-03T00:14:43.406Z,99.90
2023-05-03T00:16:45.033Z,99.90
2023-05-03T00:18:47.790Z,99.90
2023-05-03T00:20:51.307Z,99.90
2023-05-03T00:22:52.969Z,99.90
2023-05-03T00:24:54.559Z,99.90
2023-05-03T00:26:56.231Z,99.90
2023-05-03T00:28:57.855Z,99.90
2023-05-03T00:31:06.502Z,99.90
2023-05-03T00:33:08.258Z,99.90
2023-05-03T00:35:09.958Z,99.90
2023-05-03T00:37:12.166Z,99.90
2023-05-03T00:39:14.138Z,99.90
2023-05-03T00:41:16.609Z,99.90
2023-05-03T00:43:18.229Z,99.90
2023-05-03T00:45:19.793Z,99.90
2023-05-03T00:47:22.340Z,99.90
2023-05-03T00:49:24.502Z,99.90
2023-05-03T00:51:27.735Z,99.90
2023-05-03T00:53:29.361Z,99.90
2023-05-03T00:55:33.813Z,99.90
2023-05-03T00:57:35.606Z,99.90
2023-05-03T00:59:37.809Z,99.90
2023-05-03T01:01:39.446Z,99.90
2023-05-03T01:03:41.962Z,99.90
2023-05-03T01:05:46.710Z,99.90
2023-05-03T01:07:56.327Z,99.90
2023-05-03T01:10:04.375Z,99.90
2023-05-03T01:12:12.532Z,99.90
2023-05-03T01:14:26.883Z,99.90
2023-05-03T01:16:35.725Z,99.90
2023-05-03T01:18:41.842Z,99.90
2023-05-03T01:20:46.175Z,99.90
2023-05-03T01:22:56.351Z,99.90
2023-05-03T01:25:01.553Z,99.90
2023-05-03T01:27:03.285Z,99.90
2023-05-03T01:29:05.312Z,99.90
2023-05-03T01:31:07.099Z,99.90
2023-05-03T01:33:11.832Z,99.90
2023-05-03T01:35:32.416Z,99.90
2023-05-03T01:37:35.948Z,99.90
2023-05-03T01:39:42.728Z,99.90
2023-05-03T01:41:44.715Z,99.90
2023-05-03T01:43:46.512Z,99.90
2023-05-03T01:45:48.368Z,99.90
2023-05-03T01:47:50.073Z,99.90
2023-05-03T01:49:51.767Z,99.90
2023-05-03T01:51:53.361Z,99.90
2023-05-03T01:53:54.930Z,99.90
2023-05-03T01:55:56.509Z,99.90
2023-05-03T01:57:58.202Z,99.90
2023-05-03T01:59:59.842Z,99.90
2023-05-03T02:02:01.502Z,99.90
2023-05-03T02:04:03.134Z,99.90
2023-05-03T02:06:04.856Z,99.90
2023-05-03T02:08:06.452Z,99.90
2023-05-03T02:10:08.466Z,99.90
2023-05-03T02:12:11.472Z,99.90
2023-05-03T02:14:13.134Z,99.90
2023-05-03T02:16:14.796Z,99.90
2023-05-03T02:18:17.359Z,99.90
2023-05-03T02:20:19.255Z,99.90
2023-05-03T02:22:20.849Z,99.90
2023-05-03T02:24:23.566Z,99.90
2023-05-03T02:26:25.403Z,99.90
2023-05-03T02:28:26.979Z,99.90
2023-05-03T02:30:28.792Z,99.90
2023-05-03T02:32:30.668Z,99.90
2023-05-03T02:34:33.067Z,99.90
2023-05-03T02:36:34.770Z,99.90
2023-05-03T02:38:36.438Z,99.90
2023-05-03T02:40:38.098Z,99.90
2023-05-03T02:42:40.500Z,99.90
2023-05-03T02:44:42.192Z,99.90
2023-05-03T02:46:43.970Z,99.90
2023-05-03T02:48:45.751Z,99.90
2023-05-03T02:50:47.389Z,99.90
2023-05-03T02:52:49.023Z,99.90
2023-05-03T02:54:52.470Z,99.90
2023-05-03T02:56:54.045Z,99.90
2023-05-03T02:58:55.634Z,99.90
2023-05-03T03:00:57.368Z,99.90
2023-05-03T03:02:59.520Z,99.90
2023-05-03T03:05:01.250Z,99.90
2023-05-03T03:07:03.406Z,99.90
2023-05-03T03:09:05.052Z,99.90
2023-05-03T03:11:06.800Z,99.90
2023-05-03T03:13:08.499Z,99.90
2023-05-03T03:15:10.400Z,99.90
2023-05-03T03:17:13.207Z,99.90
2023-05-03T03:19:15.100Z,99.90
2023-05-03T03:21:16.753Z,99.90
2023-05-03T03:23:18.387Z,99.90
2023-05-03T03:25:20.735Z,99.90
2023-05-03T03:27:23.979Z,99.90
2023-05-03T03:29:25.744Z,99.90
2023-05-03T03:31:27.410Z,99.90
2023-05-03T03:33:29.118Z,99.90
2023-05-03T03:35:30.939Z,99.90
2023-05-03T03:37:32.657Z,99.90
2023-05-03T03:39:34.357Z,99.90
2023-05-03T03:41:36.099Z,99.90
2023-05-03T03:43:37.703Z,99.90
2023-05-03T03:45:39.297Z,99.90
2023-05-03T03:47:41.161Z,99.90
2023-05-03T03:49:42.912Z,99.90
2023-05-03T03:51:44.705Z,99.90
2023-05-03T03:53:46.419Z,99.90
2023-05-03T03:55:48.237Z,99.90
2023-05-03T03:57:49.858Z,99.90
2023-05-03T03:59:51.508Z,99.90
2023-05-03T04:01:53.218Z,99.90
2023-05-03T04:03:54.925Z,99.90
2023-05-03T04:05:56.578Z,99.90
2023-05-03T04:07:58.478Z,99.90
2023-05-03T04:10:00.429Z,99.90
2023-05-03T04:12:02.662Z,99.90
2023-05-03T04:14:04.654Z,99.90
2023-05-03T04:16:06.795Z,99.90
2023-05-03T04:18:08.820Z,99.90
2023-05-03T04:20:11.373Z,99.90
2023-05-03T04:22:13.068Z,99.90
2023-05-03T04:24:15.703Z,99.90
2023-05-03T04:26:30.225Z,99.90
2023-05-03T04:28:32.920Z,99.90
2023-05-03T04:30:35.786Z,99.90
2023-05-03T04:32:37.769Z,99.90
2023-05-03T04:34:39.745Z,99.90
2023-05-03T04:36:46.340Z,99.90
2023-05-03T04:38:47.972Z,99.90
2023-05-03T04:40:49.784Z,99.90
2023-05-03T04:42:51.394Z,99.90
2023-05-03T04:44:52.993Z,99.90
2023-05-03T04:46:54.656Z,99.90
2023-05-03T04:48:56.424Z,99.90
2023-05-03T04:50:58.217Z,99.90
2023-05-03T04:53:00.020Z,99.90
2023-05-03T04:55:01.700Z,99.90
2023-05-03T04:57:03.333Z,99.90
2023-05-03T04:59:05.559Z,99.90
2023-05-03T05:01:07.624Z,99.90
2023-05-03T05:03:09.694Z,99.90
2023-05-03T05:05:11.443Z,99.90
2023-05-03T05:07:13.333Z,99.90
2023-05-03T05:09:22.324Z,99.90
2023-05-03T05:11:23.950Z,99.90
2023-05-03T05:13:25.653Z,99.90
2023-05-03T05:15:28.198Z,99.90
2023-05-03T05:17:30.640Z,99.90
2023-05-03T05:19:32.557Z,99.90
2023-05-03T05:21:34.243Z,99.90
2023-05-03T05:23:36.267Z,99.90
2023-05-03T05:25:37.895Z,99.90
2023-05-03T05:27:39.589Z,99.90
2023-05-03T05:29:41.262Z,99.90
2023-05-03T05:31:42.983Z,99.90
2023-05-03T05:33:44.736Z,99.90
2023-05-03T05:35:49.354Z,99.90
2023-05-03T05:37:51.195Z,99.90
2023-05-03T05:39:53.396Z,99.90
2023-05-03T05:41:55.746Z,99.90
2023-05-03T05:43:58.282Z,99.90
2023-05-03T05:45:59.932Z,99.90
2023-05-03T05:48:01.663Z,99.90
2023-05-03T05:50:09.597Z,99.90
2023-05-03T05:52:16.849Z,99.90
2023-05-03T05:54:18.463Z,99.90
2023-05-03T05:56:20.190Z,99.90
2023-05-03T05:58:21.820Z,99.90
2023-05-03T06:00:24.374Z,99.90
2023-05-03T06:02:27.722Z,99.90
2023-05-03T06:04:29.546Z,99.90
2023-05-03T06:06:31.442Z,99.90
2023-05-03T06:08:33.319Z,99.90
2023-05-03T06:10:35.017Z,99.90
2023-05-03T06:12:36.921Z,99.90
2023-05-03T06:14:40.635Z,99.90
2023-05-03T06:16:45.872Z,99.90
2023-05-03T06:18:47.585Z,99.90
2023-05-03T06:20:49.793Z,99.90
2023-05-03T06:22:51.473Z,99.90
2023-05-03T06:24:53.142Z,99.90
2023-05-03T06:26:54.827Z,99.90
2023-05-03T06:28:56.548Z,99.90
2023-05-03T06:30:58.231Z,99.90
2023-05-03T06:33:00.010Z,99.90
2023-05-03T06:35:02.194Z,99.90
2023-05-03T06:37:03.944Z,99.90
2023-05-03T06:39:05.694Z,99.90
2023-05-03T06:41:07.309Z,99.90
2023-05-03T06:43:08.983Z,99.90
2023-05-03T06:45:10.900Z,99.90
2023-05-03T06:47:12.501Z,99.90
2023-05-03T06:49:14.170Z,99.90
2023-05-03T06:51:15.827Z,99.90
2023-05-03T06:53:17.565Z,99.90
2023-05-03T06:55:19.238Z,99.90
2023-05-03T06:57:21.367Z,99.90
2023-05-03T06:59:23.128Z,99.90
2023-05-03T07:01:24.795Z,99.90
2023-05-03T07:03:26.570Z,99.90
2023-05-03T07:05:28.329Z,99.90
2023-05-03T07:07:29.935Z,99.90
2023-05-03T07:09:42.047Z,99.90
2023-05-03T07:11:49.388Z,99.90
2023-05-03T07:13:51.599Z,99.90
2023-05-03T07:15:53.344Z,99.90
2023-05-03T07:17:55.124Z,99.90
2023-05-03T07:19:56.737Z,99.90
2023-05-03T07:21:58.405Z,99.90
2023-05-03T07:24:00.938Z,99.90
2023-05-03T07:26:02.610Z,99.90
2023-05-03T07:28:04.356Z,99.90
2023-05-03T07:30:06.772Z,99.90
2023-05-03T07:32:08.768Z,99.90
2023-05-03T07:34:10.680Z,99.90
2023-05-03T07:36:12.340Z,99.90
2023-05-03T07:38:14.017Z,99.90
2023-05-03T07:40:15.779Z,99.90
2023-05-03T07:42:17.432Z,99.90
2023-05-03T07:44:19.126Z,99.90
2023-05-03T07:46:20.773Z,99.90
2023-05-03T07:48:22.466Z,99.90
2023-05-03T07:50:24.092Z,99.90
2023-05-03T07:52:25.798Z,99.90
2023-05-03T07:54:27.456Z,99.90
2023-05-03T07:56:29.313Z,99.90
2023-05-03T07:58:39.945Z,99.90
2023-05-03T08:00:42.808Z,99.90
2023-05-03T08:02:44.690Z,99.90
2023-05-03T08:04:46.792Z,99.90
2023-05-03T08:06:48.958Z,99.90
2023-05-03T08:08:50.896Z,99.90
2023-05-03T08:10:52.849Z,99.90
2023-05-03T08:12:54.574Z,99.90
2023-05-03T08:14:56.432Z,99.90
2023-05-03T08:16:58.032Z,99.90
2023-05-03T08:18:59.717Z,99.90
2023-05-03T08:21:01.491Z,99.90
2023-05-03T08:23:03.270Z,99.90
2023-05-03T08:25:05.123Z,99.90
2023-05-03T08:27:07.948Z,99.90
2023-05-03T08:29:09.776Z,99.90
2023-05-03T08:31:11.498Z,99.90
2023-05-03T08:33:13.347Z,99.90
2023-05-03T08:35:15.360Z,99.90
2023-05-03T08:37:17.082Z,99.90
2023-05-03T08:39:19.174Z,99.90
2023-05-03T08:41:30.981Z,99.90
2023-05-03T08:43:34.718Z,99.90
2023-05-03T08:45:36.316Z,99.90
2023-05-03T08:47:40.632Z,99.90
2023-05-03T08:49:43.047Z,99.90
2023-05-03T08:51:49.588Z,99.90
2023-05-03T08:53:51.407Z,99.90
2023-05-03T08:55:53.725Z,99.90
2023-05-03T08:57:55.576Z,99.90
2023-05-03T09:00:00.715Z,99.90
2023-05-03T09:02:02.703Z,99.90
2023-05-03T09:04:05.127Z,99.90
2023-05-03T09:06:19.232Z,99.90
2023-05-03T09:08:22.719Z,99.90
2023-05-03T09:10:24.643Z,99.90
2023-05-03T09:12:41.387Z,99.90
2023-05-03T09:14:44.072Z,99.90
2023-05-03T09:16:46.735Z,99.90
2023-05-03T09:19:01.493Z,99.90
2023-05-03T09:21:03.183Z,99.90
2023-05-03T09:23:04.976Z,99.90
2023-05-03T09:25:07.574Z,99.90
2023-05-03T09:27:18.340Z,99.90
2023-05-03T09:29:27.239Z,99.90
2023-05-03T09:31:29.778Z,99.90
2023-05-03T09:33:31.590Z,99.90
2023-05-03T09:35:33.807Z,99.90
2023-05-03T09:37:38.899Z,99.90
2023-05-03T09:39:41.422Z,99.90
2023-05-03T09:41:43.048Z,99.90
2023-05-03T09:43:49.516Z,99.90
2023-05-03T09:45:51.277Z,99.90
2023-05-03T09:47:54.056Z,99.90
2023-05-03T09:49:56.149Z,99.90
2023-05-03T09:51:58.378Z,99.90
2023-05-03T09:54:00.180Z,99.90
2023-05-03T09:56:14.023Z,99.90
2023-05-03T09:58:16.261Z,99.90
2023-05-03T10:00:20.679Z,99.90
2023-05-03T10:02:22.679Z,99.90
2023-05-03T10:04:25.398Z,99.90
2023-05-03T10:06:38.231Z,99.90
2023-05-03T10:08:48.002Z,99.90
2023-05-03T10:10:54.351Z,99.90
2023-05-03T10:12:56.183Z,99.90
2023-05-03T10:14:59.520Z,99.90
2023-05-03T10:17:03.521Z,99.90
2023-05-03T10:19:08.182Z,99.90
2023-05-03T10:21:14.438Z,99.90
2023-05-03T10:23:17.531Z,99.90
2023-05-03T10:25:19.364Z,99.90
2023-05-03T10:27:21.229Z,99.90
2023-05-03T10:29:34.949Z,99.90
2023-05-03T10:31:54.741Z,99.90
2023-05-03T10:33:56.381Z,99.90
2023-05-03T10:35:59.281Z,99.90
2023-05-03T10:38:13.536Z,99.90
2023-05-03T10:40:16.318Z,99.90
2023-05-03T10:42:21.795Z,99.90
2023-05-03T10:44:35.453Z,99.90
2023-05-03T10:46:37.243Z,99.90
2023-05-03T10:48:38.891Z,99.90
2023-05-03T10:50:40.913Z,99.90
2023-05-03T10:52:42.487Z,99.90
2023-05-03T10:54:44.138Z,99.90
2023-05-03T10:56:53.037Z,99.90
2023-05-03T10:58:58.860Z,99.90
2023-05-03T11:01:02.759Z,99.90
2023-05-03T11:03:25.349Z,99.90
2023-05-03T11:05:28.534Z,99.90
2023-05-03T11:07:31.898Z,99.90
2023-05-03T11:09:34.444Z,99.90
2023-05-03T11:11:37.154Z,99.90
2023-05-03T11:13:38.823Z,99.90
2023-05-03T11:15:40.722Z,99.90
2023-05-03T11:17:42.492Z,99.90
2023-05-03T11:19:44.488Z,99.90
2023-05-03T11:21:48.268Z,99.90
2023-05-03T11:23:50.198Z,99.90
2023-05-03T11:25:52.116Z,99.90
2023-05-03T11:27:53.813Z,99.90
2023-05-03T11:29:58.488Z,99.90
2023-05-03T11:32:00.434Z,99.90
2023-05-03T11:34:02.349Z,99.90
2023-05-03T11:36:05.708Z,99.90
2023-05-03T11:38:07.346Z,99.90
2023-05-03T11:40:16.710Z,99.90
2023-05-03T11:42:18.814Z,99.90
2023-05-03T11:44:20.881Z,99.90
2023-05-03T11:46:24.596Z,99.90
2023-05-03T11:48:27.807Z,99.90
2023-05-03T11:50:50.791Z,99.90
2023-05-03T11:52:52.973Z,99.90
2023-05-03T11:54:54.683Z,99.90
2023-05-03T11:56:57.899Z,99.90
2023-05-03T11:59:00.685Z,99.90
2023-05-03T12:01:03.574Z,99.90
2023-05-03T12:03:05.376Z,99.90
2023-05-03T12:05:08.543Z,99.90
2023-05-03T12:07:13.194Z,98.00
2023-05-03T12:09:15.964Z,99.30
2023-05-03T12:11:18.500Z,99.50
2023-05-03T12:13:40.542Z,99.20
2023-05-03T12:15:50.500Z,97.20
2023-05-03T12:18:04.265Z,97.60
2023-05-03T12:22:29.999Z,98.40
2023-05-03T12:24:33.905Z,99.90
2023-05-03T12:26:37.919Z,99.90
2023-05-03T12:28:39.726Z,98.60
2023-05-03T12:30:41.594Z,95.00
2023-05-03T12:32:44.480Z,98.00
2023-05-03T12:34:47.268Z,99.90
2023-05-03T12:36:49.453Z,99.90
2023-05-03T12:38:55.238Z,99.90
2023-05-03T12:40:59.774Z,99.90
2023-05-03T12:43:01.783Z,95.10
2023-05-03T12:45:04.932Z,96.10
2023-05-03T12:47:09.877Z,95.50
2023-05-03T12:49:15.174Z,92.80
2023-05-03T12:51:19.925Z,93.80
2023-05-03T12:55:25.650Z,94.50
2023-05-03T12:57:30.714Z,99.90
2023-05-03T12:59:41.081Z,99.30
2023-05-03T13:05:53.447Z,99.90
2023-05-03T13:07:56.739Z,99.90
2023-05-03T13:12:03.865Z,95.50
2023-05-03T13:14:05.625Z,90.70
2023-05-03T13:16:07.954Z,92.10
2023-05-03T13:18:09.669Z,92.90
2023-05-03T13:20:12.202Z,91.90
2023-05-03T13:22:13.992Z,91.00
2023-05-03T13:24:15.889Z,88.90
2023-05-03T13:26:17.475Z,87.70
2023-05-03T13:28:24.179Z,91.70
2023-05-03T13:30:26.133Z,90.20
2023-05-03T13:32:27.911Z,93.40
2023-05-03T13:34:29.741Z,93.40
2023-05-03T13:36:33.301Z,96.70
2023-05-03T13:38:35.449Z,89.40
2023-05-03T13:40:37.380Z,89.90
2023-05-03T13:42:38.974Z,83.60
2023-05-03T13:44:40.625Z,88.30
2023-05-03T13:46:43.499Z,90.80
2023-05-03T13:48:45.190Z,91.00
2023-05-03T13:50:46.886Z,95.60
2023-05-03T13:52:48.519Z,94.90
2023-05-03T13:54:50.323Z,96.50
2023-05-03T13:56:52.190Z,94.40
2023-05-03T13:58:55.619Z,97.00
2023-05-03T14:00:57.424Z,94.40
2023-05-03T14:02:59.213Z,95.70
2023-05-03T14:05:00.981Z,93.90
2023-05-03T14:07:03.439Z,93.80
2023-05-03T14:09:05.374Z,94.90
2023-05-03T14:11:12.093Z,97.60
2023-05-03T14:13:13.824Z,94.20
2023-05-03T14:15:15.846Z,96.20
2023-05-03T14:17:17.673Z,92.90
2023-05-03T14:19:19.623Z,98.60
2023-05-03T14:21:21.317Z,94.50
2023-05-03T14:23:24.271Z,96.10
2023-05-03T14:25:26.714Z,99.50
2023-05-03T14:27:28.323Z,95.60
2023-05-03T14:29:30.061Z,97.60
2023-05-03T14:31:32.214Z,99.90
2023-05-03T14:33:33.997Z,99.90
2023-05-03T14:35:35.639Z,99.80
2023-05-03T14:37:37.728Z,96.80
2023-05-03T14:39:39.944Z,95.80
2023-05-03T14:41:45.174Z,95.20
2023-05-03T14:43:47.265Z,94.20
2023-05-03T14:45:48.893Z,95.90
2023-05-03T14:47:51.038Z,97.00
2023-05-03T14:49:52.672Z,96.00
2023-05-03T14:51:54.306Z,96.30
2023-05-03T14:53:56.022Z,98.80
2023-05-03T14:55:57.912Z,95.60
2023-05-03T14:57:59.589Z,96.00
2023-05-03T15:00:06.725Z,94.20
2023-05-03T15:02:10.218Z,92.50
2023-05-03T15:04:11.937Z,89.10
2023-05-03T15:06:13.732Z,89.80
2023-05-03T15:08:16.751Z,84.30
2023-05-03T15:10:18.370Z,76.00
2023-05-03T15:12:19.936Z,76.40
2023-05-03T15:14:21.760Z,80.50
2023-05-03T15:16:23.565Z,76.80
2023-05-03T15:18:27.338Z,74.30
2023-05-03T15:20:29.050Z,77.10
2023-05-03T15:22:31.063Z,80.70
2023-05-03T15:24:32.797Z,79.20
2023-05-03T15:26:34.978Z,74.60
2023-05-03T15:28:36.719Z,78.10
2023-05-03T15:30:38.358Z,75.30
2023-05-03T15:32:40.186Z,74.80
2023-05-03T15:34:41.888Z,67.50
2023-05-03T15:36:43.507Z,70.70
2023-05-03T15:38:45.169Z,83.00
2023-05-03T15:40:46.812Z,83.00
2023-05-03T15:42:48.566Z,72.50
2023-05-03T15:44:51.535Z,68.70
2023-05-03T15:46:53.429Z,61.30
2023-05-03T15:48:55.015Z,63.60
2023-05-03T15:50:56.714Z,66.60
2023-05-03T15:52:58.859Z,63.50
2023-05-03T15:55:00.540Z,66.80
2023-05-03T15:57:05.083Z,66.00
2023-05-03T15:59:07.492Z,62.10
2023-05-03T16:01:09.307Z,61.50
2023-05-03T16:03:11.123Z,62.60
2023-05-03T16:05:12.951Z,62.80
2023-05-03T16:07:14.608Z,62.00
2023-05-03T16:09:16.551Z,71.30
2023-05-03T16:11:18.176Z,70.70
2023-05-03T16:13:19.877Z,73.00
2023-05-03T16:15:21.540Z,74.30
2023-05-03T16:17:23.169Z,73.10
2023-05-03T16:19:24.892Z,73.60
2023-05-03T16:21:26.601Z,71.90
2023-05-03T16:23:28.373Z,73.50
2023-05-03T16:25:30.817Z,77.80
2023-05-03T16:27:32.453Z,74.10
2023-05-03T16:29:34.885Z,77.80
2023-05-03T16:31:36.537Z,77.70
2023-05-03T16:33:38.270Z,80.50
2023-05-03T16:35:40.177Z,85.80
2023-05-03T16:37:41.956Z,86.60
2023-05-03T16:39:44.325Z,81.80
2023-05-03T16:41:46.048Z,82.50
2023-05-03T16:43:47.732Z,77.20
2023-05-03T16:46:00.703Z,80.50
2023-05-03T16:48:12.868Z,80.40
2023-05-03T16:50:14.592Z,80.50
2023-05-03T16:52:16.251Z,77.40
2023-05-03T16:54:17.944Z,81.40
2023-05-03T16:56:19.766Z,80.30
2023-05-03T16:58:21.675Z,80.70
2023-05-03T17:00:23.421Z,79.90
2023-05-03T17:02:25.069Z,85.80
2023-05-03T17:04:27.089Z,82.20
2023-05-03T17:06:28.688Z,86.40
2023-05-03T17:08:30.370Z,87.30
2023-05-03T17:10:32.209Z,91.00
2023-05-03T17:12:34.172Z,90.30
2023-05-03T17:14:35.954Z,91.30
2023-05-03T17:16:39.269Z,90.00
2023-05-03T17:18:41.561Z,91.20
2023-05-03T17:20:43.467Z,91.20
2023-05-03T17:22:45.458Z,92.10
2023-05-03T17:24:47.139Z,92.10
2023-05-03T17:26:48.887Z,90.90
2023-05-03T17:28:50.603Z,92.10
2023-05-03T17:30:53.693Z,94.60
2023-05-03T17:32:55.500Z,92.90
2023-05-03T17:34:58.149Z,94.20
2023-05-03T17:36:59.916Z,96.60
2023-05-03T17:39:02.024Z,94.00
2023-05-03T17:41:04.900Z,95.80
2023-05-03T17:43:06.676Z,96.60
2023-05-03T17:45:08.585Z,94.30
2023-05-03T17:47:11.110Z,95.20
2023-05-03T17:49:12.769Z,94.80
2023-05-03T17:51:14.824Z,94.90
2023-05-03T17:53:18.328Z,96.10
2023-05-03T17:55:20.020Z,96.50
2023-05-03T17:57:21.715Z,96.10
2023-05-03T17:59:23.453Z,97.60
2023-05-03T18:01:25.915Z,98.50
2023-05-03T18:03:28.403Z,99.50
2023-05-03T18:05:36.984Z,99.90
2023-05-03T18:07:38.783Z,99.90
2023-05-03T18:09:40.848Z,99.90
2023-05-03T18:11:44.995Z,99.90
2023-05-03T18:13:46.838Z,99.90
2023-05-03T18:15:49.599Z,99.90
2023-05-03T18:17:51.775Z,99.90
2023-05-03T18:19:53.588Z,99.90
2023-05-03T18:21:55.207Z,99.90
2023-05-03T18:23:57.089Z,99.90
2023-05-03T18:25:59.794Z,99.90
2023-05-03T18:28:02.152Z,99.90
2023-05-03T18:30:05.356Z,99.90
2023-05-03T18:32:07.724Z,99.90
2023-05-03T18:34:27.667Z,99.90
2023-05-03T18:36:29.392Z,99.90
2023-05-03T18:38:31.220Z,99.90
2023-05-03T18:40:32.891Z,99.90
2023-05-03T18:42:34.674Z,99.90
2023-05-03T18:44:38.451Z,99.90
2023-05-03T18:46:40.149Z,99.90
2023-05-03T18:48:41.829Z,99.90
2023-05-03T18:50:44.077Z,99.90
2023-05-03T18:52:45.822Z,99.90
2023-05-03T18:54:47.693Z,99.90
2023-05-03T18:56:49.426Z,99.90
2023-05-03T18:58:51.144Z,99.90
2023-05-03T19:00:52.788Z,99.90
2023-05-03T19:02:54.452Z,99.90
2023-05-03T19:04:56.453Z,99.90
2023-05-03T19:06:58.159Z,99.90
2023-05-03T19:08:59.726Z,99.90
2023-05-03T19:11:08.521Z,99.90
2023-05-03T19:13:10.456Z,99.90
2023-05-03T19:15:12.355Z,99.90
2023-05-03T19:17:14.057Z,99.90
2023-05-03T19:19:15.733Z,99.90
2023-05-03T19:21:17.578Z,99.90
2023-05-03T19:23:19.283Z,99.90
2023-05-03T19:25:20.958Z,99.90
2023-05-03T19:27:22.682Z,99.90
2023-05-03T19:29:24.352Z,99.90
2023-05-03T19:31:26.293Z,99.90
2023-05-03T19:33:28.124Z,99.90
2023-05-03T19:35:29.791Z,99.90
2023-05-03T19:37:31.456Z,99.90
2023-05-03T19:39:35.609Z,99.90
2023-05-03T19:41:38.637Z,99.90
2023-05-03T19:43:40.647Z,99.90
2023-05-03T19:45:42.402Z,99.90
2023-05-03T19:47:44.398Z,99.90
2023-05-03T19:49:46.262Z,99.90
2023-05-03T19:51:48.886Z,99.90
2023-05-03T19:53:50.522Z,99.90
2023-05-03T19:55:56.553Z,99.90
2023-05-03T19:57:58.394Z,99.90
2023-05-03T20:00:00.000Z,99.90
2023-05-03T20:02:01.719Z,99.90
2023-05-03T20:04:03.664Z,99.90
2023-05-03T20:06:05.551Z,99.90
2023-05-03T20:08:07.170Z,99.90
2023-05-03T20:10:09.236Z,99.90
2023-05-03T20:12:11.996Z,99.90
2023-05-03T20:14:13.626Z,99.90
2023-05-03T20:16:15.353Z,99.90
2023-05-03T20:18:17.241Z,99.90
2023-05-03T20:20:19.006Z,99.90
2023-05-03T20:22:20.575Z,99.90
2023-05-03T20:24:22.434Z,99.90
2023-05-03T20:26:24.136Z,99.90
2023-05-03T20:28:25.852Z,99.90
2023-05-03T20:30:29.135Z,99.90
2023-05-03T20:32:30.893Z,99.90
2023-05-03T20:34:33.371Z,99.90
2023-05-03T20:36:35.076Z,99.90
2023-05-03T20:38:36.769Z,99.90
2023-05-03T20:40:38.726Z,99.90
2023-05-03T20:42:40.363Z,99.90
2023-05-03T20:44:42.170Z,99.90
2023-05-03T20:46:45.337Z,99.90
2023-05-03T20:48:46.966Z,99.90
2023-05-03T20:50:50.006Z,99.90
2023-05-03T20:52:51.617Z,99.90
2023-05-03T20:54:53.305Z,99.90
2023-05-03T20:56:54.890Z,99.90
2023-05-03T20:58:56.576Z,99.90
2023-05-03T21:00:58.374Z,99.90
2023-05-03T21:03:00.139Z,99.90
2023-05-03T21:05:01.921Z,99.90
2023-05-03T21:07:03.741Z,99.90
2023-05-03T21:09:05.949Z,99.90
2023-05-03T21:11:08.353Z,99.90
2023-05-03T21:13:10.142Z,99.90
2023-05-03T21:15:11.989Z,99.90
2023-05-03T21:17:13.821Z,99.90
2023-05-03T21:19:15.480Z,99.90
2023-05-03T21:21:17.083Z,99.90
2023-05-03T21:23:18.751Z,99.90
2023-05-03T21:25:20.517Z,99.90
2023-05-03T21:27:22.156Z,99.90
2023-05-03T21:29:24.045Z,99.90
2023-05-03T21:31:26.161Z,99.90
2023-05-03T21:33:27.925Z,99.90
2023-05-03T21:35:29.558Z,99.90
2023-05-03T21:37:31.252Z,99.90
2023-05-03T21:39:33.412Z,99.90
2023-05-03T21:41:35.219Z,99.90
2023-05-03T21:43:37.051Z,99.90
2023-05-03T21:45:48.879Z,99.90
2023-05-03T21:47:50.631Z,99.90
2023-05-03T21:49:52.260Z,99.90
2023-05-03T21:51:53.935Z,99.90
2023-05-03T21:53:55.765Z,99.90
2023-05-03T21:55:57.386Z,99.90
2023-05-03T21:57:59.035Z,99.90
2023-05-03T22:00:00.601Z,99.90
2023-05-03T22:02:02.405Z,99.90
2023-05-03T22:04:04.574Z,99.90
2023-05-03T22:06:07.338Z,99.90
2023-05-03T22:08:12.882Z,99.90
2023-05-03T22:10:14.551Z,99.90
2023-05-03T22:14:21.034Z,99.90
2023-05-03T22:16:22.720Z,99.90
2023-05-03T22:18:28.003Z,99.90
2023-05-03T22:20:29.651Z,99.90
2023-05-03T22:22:31.358Z,99.90
2023-05-03T22:24:32.983Z,99.90
2023-05-03T22:26:34.628Z,99.90
2023-05-03T22:28:36.235Z,99.90
2023-05-03T22:30:37.869Z,99.90
2023-05-03T22:32:39.473Z,99.90
2023-05-03T22:34:41.203Z,99.90
2023-05-03T22:36:42.885Z,99.90
2023-05-03T22:38:44.523Z,99.90
2023-05-03T22:40:46.254Z,99.90
2023-05-03T22:42:48.243Z,99.90
2023-05-03T22:44:49.865Z,99.90
2023-05-03T22:46:51.544Z,99.90
2023-05-03T22:48:53.179Z,99.90
2023-05-03T22:50:54.803Z,99.90
2023-05-03T22:52:56.402Z,99.90
2023-05-03T22:54:58.024Z,99.90
2023-05-03T22:57:01.667Z,99.90
2023-05-03T22:59:03.339Z,99.90
2023-05-03T23:01:12.550Z,99.90
2023-05-03T23:03:14.455Z,99.90
2023-05-03T23:05:16.380Z,99.90
2023-05-03T23:07:20.199Z,99.90
2023-05-03T23:09:21.936Z,99.90
2023-05-03T23:11:24.734Z,99.90
2023-05-03T23:13:27.471Z,99.90
2023-05-03T23:15:29.508Z,99.90
2023-05-03T23:17:31.508Z,99.90
2023-05-03T23:19:33.921Z,99.90
2023-05-03T23:21:35.625Z,99.90
2023-05-03T23:23:37.332Z,99.90
2023-05-03T23:25:40.047Z,99.90
2023-05-03T23:27:41.965Z,99.90
2023-05-03T23:29:47.198Z,99.90
2023-05-03T23:31:49.454Z,99.90
2023-05-03T23:33:52.492Z,99.90
2023-05-03T23:35:54.352Z,99.90
2023-05-03T23:37:56.272Z,99.90
2023-05-03T23:39:58.188Z,99.90
2023-05-03T23:41:59.985Z,99.90
2023-05-03T23:44:01.714Z,99.90
2023-05-03T23:46:03.545Z,99.90
2023-05-03T23:48:06.567Z,99.90
2023-05-03T23:50:08.702Z,99.90
2023-05-03T23:52:10.613Z,99.90
2023-05-03T23:54:13.122Z,99.90
2023-05-03T23:56:14.829Z,99.90
2023-05-03T23:58:16.817Z,99.90
